createdAt,value
2018-01-08T00:00:05.846Z,10.1
2018-01-08T00:01:07.593Z,10.1
2018-01-08T00:02:09.343Z,10.1
2018-01-08T00:03:11.093Z,10.0
2018-01-08T00:04:12.861Z,10.0
2018-01-08T00:05:14.621Z,10.0
2018-01-08T00:06:16.429Z,10.0
2018-01-08T00:07:18.186Z,10.0
2018-01-08T00:08:19.915Z,10.0
2018-01-08T00:09:21.682Z,10.1
2018-01-08T00:10:23.400Z,10.0
2018-01-08T00:11:25.261Z,10.0
2018-01-08T00:12:27.052Z,10.0
2018-01-08T00:13:28.787Z,9.9
2018-01-08T00:14:30.536Z,10.0
2018-01-08T00:15:32.294Z,10.1
2018-01-08T00:16:34.068Z,9.9
2018-01-08T00:17:35.826Z,10.0
2018-01-08T00:18:37.677Z,10.0
2018-01-08T00:19:39.407Z,10.0
2018-01-08T00:20:41.148Z,9.9
2018-01-08T00:21:42.906Z,9.9
2018-01-08T00:22:44.646Z,9.9
2018-01-08T00:23:46.412Z,9.8
2018-01-08T00:24:48.230Z,9.8
2018-01-08T00:25:49.960Z,9.8
2018-01-08T00:26:51.706Z,9.7
2018-01-08T00:27:53.482Z,9.7
2018-01-08T00:28:55.199Z,9.8
2018-01-08T00:29:57.002Z,9.7
2018-01-08T00:30:58.816Z,9.8
2018-01-08T00:32:00.570Z,9.8
2018-01-08T00:33:02.363Z,9.7
2018-01-08T00:34:04.199Z,9.7
2018-01-08T00:35:05.956Z,9.7
2018-01-08T00:36:07.681Z,9.7
2018-01-08T00:37:09.488Z,9.5
2018-01-08T00:38:11.239Z,9.7
2018-01-08T00:39:12.984Z,9.7
2018-01-08T00:40:14.730Z,9.7
2018-01-08T00:41:16.481Z,9.6
2018-01-08T00:42:18.251Z,9.5
2018-01-08T00:43:20.087Z,9.7
2018-01-08T00:44:21.837Z,9.7
2018-01-08T00:45:23.602Z,9.7
2018-01-08T00:46:25.369Z,9.7
2018-01-08T00:47:27.098Z,9.7
2018-01-08T00:48:28.827Z,9.6
2018-01-08T00:49:30.606Z,9.6
2018-01-08T00:50:32.425Z,9.7
2018-01-08T00:51:34.147Z,9.7
2018-01-08T00:52:35.889Z,9.6
2018-01-08T00:53:37.717Z,9.6
2018-01-08T00:54:39.536Z,9.5
2018-01-08T00:55:41.302Z,9.5
2018-01-08T00:56:43.065Z,9.5
2018-01-08T00:57:44.771Z,9.5
2018-01-08T00:58:46.518Z,9.4
2018-01-08T00:59:48.259Z,9.4
2018-01-08T01:00:50.009Z,9.4
2018-01-08T01:01:51.778Z,9.4
2018-01-08T01:02:53.534Z,9.4
2018-01-08T01:03:55.275Z,9.4
2018-01-08T01:04:57.034Z,9.3
2018-01-08T01:05:58.775Z,9.3
2018-01-08T01:07:00.505Z,9.4
2018-01-08T01:08:02.250Z,9.3
2018-01-08T01:09:04.814Z,9.3
2018-01-08T01:10:06.630Z,9.3
2018-01-08T01:11:08.351Z,9.3
2018-01-08T01:12:10.160Z,9.2
2018-01-08T01:13:11.926Z,9.2
2018-01-08T01:14:13.703Z,9.3
2018-01-08T01:15:15.506Z,9.2
2018-01-08T01:16:17.239Z,9.2
2018-01-08T01:17:18.956Z,9.1
2018-01-08T01:18:20.640Z,9.1
2018-01-08T01:19:22.384Z,9.2
2018-01-08T01:20:24.172Z,9.2
2018-01-08T01:21:25.916Z,9.1
2018-01-08T01:22:27.710Z,9.1
2018-01-08T01:23:29.427Z,9.1
2018-01-08T01:24:31.159Z,9.0
2018-01-08T01:25:33.044Z,9.1
2018-01-08T01:26:34.819Z,9.0
2018-01-08T01:27:36.558Z,9.0
2018-01-08T01:28:38.295Z,8.9
2018-01-08T01:29:40.010Z,8.9
2018-01-08T01:30:41.763Z,8.9
2018-01-08T01:31:43.523Z,8.9
2018-01-08T01:32:45.289Z,8.9
2018-01-08T01:33:47.046Z,8.9
2018-01-08T01:34:48.798Z,8.9
2018-01-08T01:35:50.542Z,8.9
2018-01-08T01:36:52.281Z,8.9
2018-01-08T01:37:54.043Z,8.9
2018-01-08T01:38:55.861Z,8.8
2018-01-08T01:39:57.711Z,8.8
2018-01-08T01:40:59.448Z,8.8
2018-01-08T01:42:01.190Z,8.8
2018-01-08T01:43:02.916Z,8.8
2018-01-08T01:44:04.749Z,8.9
2018-01-08T01:45:06.579Z,8.8
2018-01-08T01:46:08.260Z,8.7
2018-01-08T01:47:09.978Z,8.7
2018-01-08T01:48:11.744Z,8.7
2018-01-08T01:49:13.513Z,8.7
2018-01-08T01:50:15.263Z,8.7
2018-01-08T01:51:17.019Z,8.8
2018-01-08T01:52:18.771Z,8.7
2018-01-08T01:53:20.506Z,8.7
2018-01-08T01:54:22.232Z,8.8
2018-01-08T01:55:23.957Z,8.8
2018-01-08T01:56:25.718Z,8.8
2018-01-08T01:57:27.494Z,8.7
2018-01-08T01:58:29.241Z,8.7
2018-01-08T01:59:30.992Z,8.7
2018-01-08T02:00:32.745Z,8.7
2018-01-08T02:01:34.488Z,8.7
2018-01-08T02:02:36.213Z,8.8
2018-01-08T02:03:37.953Z,8.7
2018-01-08T02:04:39.691Z,8.7
2018-01-08T02:05:41.432Z,8.8
2018-01-08T02:06:43.153Z,8.7
2018-01-08T02:07:44.878Z,8.8
2018-01-08T02:08:46.603Z,8.7
2018-01-08T02:09:48.339Z,8.7
2018-01-08T02:10:50.120Z,8.6
2018-01-08T02:11:51.839Z,8.7
2018-01-08T02:12:53.588Z,8.6
2018-01-08T02:13:55.351Z,8.6
2018-01-08T02:14:57.067Z,8.6
2018-01-08T02:15:58.770Z,8.6
2018-01-08T02:17:00.595Z,8.6
2018-01-08T02:18:02.358Z,8.7
2018-01-08T02:19:04.201Z,8.6
2018-01-08T02:20:05.980Z,8.5
2018-01-08T02:21:07.700Z,8.6
2018-01-08T02:22:09.448Z,8.6
2018-01-08T02:23:11.278Z,8.6
2018-01-08T02:24:13.205Z,8.6
2018-01-08T02:25:14.924Z,8.6
2018-01-08T02:26:16.649Z,8.6
2018-01-08T02:27:18.374Z,8.6
2018-01-08T02:28:20.085Z,8.6
2018-01-08T02:29:21.853Z,8.6
2018-01-08T02:30:23.566Z,8.6
2018-01-08T02:31:25.311Z,8.6
2018-01-08T02:32:27.036Z,8.7
2018-01-08T02:33:28.758Z,8.6
2018-01-08T02:34:30.476Z,8.6
2018-01-08T02:35:32.280Z,8.6
2018-01-08T02:36:34.017Z,8.7
2018-01-08T02:37:35.729Z,8.6
2018-01-08T02:38:37.454Z,8.6
2018-01-08T02:39:39.187Z,8.6
2018-01-08T02:40:40.902Z,8.5
2018-01-08T02:41:42.683Z,8.6
2018-01-08T02:42:44.499Z,8.5
2018-01-08T02:43:46.243Z,8.4
2018-01-08T02:44:47.963Z,8.4
2018-01-08T02:45:49.699Z,8.4
2018-01-08T02:46:51.411Z,8.4
2018-01-08T02:47:53.174Z,8.3
2018-01-08T02:48:54.871Z,8.3
2018-01-08T02:49:56.590Z,8.5
2018-01-08T02:50:58.303Z,8.5
2018-01-08T02:52:00.031Z,8.4
2018-01-08T02:53:01.778Z,8.4
2018-01-08T02:54:03.526Z,8.4
2018-01-08T02:55:05.361Z,8.4
2018-01-08T02:56:07.071Z,8.4
2018-01-08T02:57:08.794Z,8.3
2018-01-08T02:58:10.528Z,8.3
2018-01-08T02:59:12.238Z,8.3
2018-01-08T03:00:13.962Z,8.2
2018-01-08T03:01:15.713Z,8.3
2018-01-08T03:02:17.441Z,8.2
2018-01-08T03:03:19.150Z,8.2
2018-01-08T03:04:20.887Z,8.1
2018-01-08T03:05:22.620Z,8.2
2018-01-08T03:06:24.355Z,8.1
2018-01-08T03:07:26.102Z,8.1
2018-01-08T03:08:27.844Z,8.2
2018-01-08T03:09:29.553Z,8.1
2018-01-08T03:10:31.288Z,8.2
2018-01-08T03:11:33.024Z,8.1
2018-01-08T03:12:34.826Z,8.1
2018-01-08T03:13:36.572Z,8.1
2018-01-08T03:14:38.309Z,8.1
2018-01-08T03:15:40.012Z,8.1
2018-01-08T03:16:41.709Z,8.1
2018-01-08T03:17:43.425Z,8.1
2018-01-08T03:18:45.152Z,8.2
2018-01-08T03:19:46.878Z,8.1
2018-01-08T03:20:48.601Z,8.1
2018-01-08T03:21:50.303Z,8.2
2018-01-08T03:22:52.017Z,8.1
2018-01-08T03:23:53.746Z,8.0
2018-01-08T03:24:55.499Z,8.1
2018-01-08T03:25:57.221Z,8.0
2018-01-08T03:26:58.937Z,8.0
2018-01-08T03:28:00.657Z,7.9
2018-01-08T03:29:02.406Z,7.9
2018-01-08T03:30:04.146Z,7.8
2018-01-08T03:31:05.931Z,7.8
2018-01-08T03:32:07.674Z,7.8
2018-01-08T03:33:09.414Z,7.8
2018-01-08T03:34:11.149Z,7.7
2018-01-08T03:35:12.900Z,7.7
2018-01-08T03:36:14.635Z,7.7
2018-01-08T03:37:16.349Z,7.5
2018-01-08T03:38:18.093Z,7.6
2018-01-08T03:39:19.817Z,7.5
2018-01-08T03:40:21.560Z,7.5
2018-01-08T03:41:23.317Z,7.5
2018-01-08T03:42:25.093Z,7.5
2018-01-08T03:43:26.870Z,7.5
2018-01-08T03:44:28.616Z,7.5
2018-01-08T03:45:30.516Z,7.5
2018-01-08T03:46:32.338Z,7.5
2018-01-08T03:47:34.040Z,7.5
2018-01-08T03:48:35.784Z,7.5
2018-01-08T03:49:37.512Z,7.6
2018-01-08T03:50:39.248Z,7.5
2018-01-08T03:51:40.955Z,7.5
2018-01-08T03:52:42.677Z,7.5
2018-01-08T03:53:44.400Z,7.5
2018-01-08T03:54:46.151Z,7.5
2018-01-08T03:55:47.887Z,7.5
2018-01-08T03:56:49.603Z,7.5
2018-01-08T03:57:51.310Z,7.5
2018-01-08T03:58:53.052Z,7.5
2018-01-08T03:59:54.820Z,7.6
2018-01-08T04:00:56.546Z,7.6
2018-01-08T04:01:58.272Z,7.8
2018-01-08T04:03:00.000Z,7.7
2018-01-08T04:04:01.783Z,7.7
2018-01-08T04:05:03.543Z,7.7
2018-01-08T04:06:05.270Z,7.6
2018-01-08T04:07:07.111Z,7.6
2018-01-08T04:08:08.824Z,7.7
2018-01-08T04:09:10.547Z,7.6
2018-01-08T04:10:12.269Z,7.6
2018-01-08T04:11:13.986Z,7.5
2018-01-08T04:12:15.692Z,7.5
2018-01-08T04:13:17.444Z,7.5
2018-01-08T04:14:19.147Z,7.6
2018-01-08T04:15:20.864Z,7.5
2018-01-08T04:16:22.588Z,7.4
2018-01-08T04:17:24.300Z,7.5
2018-01-08T04:18:26.061Z,7.5
2018-01-08T04:19:27.827Z,7.5
2018-01-08T04:20:29.527Z,7.4
2018-01-08T04:21:31.248Z,7.3
2018-01-08T04:22:32.983Z,7.3
2018-01-08T04:23:34.714Z,7.3
2018-01-08T04:24:36.486Z,7.3
2018-01-08T04:25:38.202Z,7.2
2018-01-08T04:26:39.953Z,7.3
2018-01-08T04:27:41.680Z,7.3
2018-01-08T04:28:43.401Z,7.3
2018-01-08T04:29:45.127Z,7.3
2018-01-08T04:30:46.837Z,7.4
2018-01-08T04:31:48.563Z,7.4
2018-01-08T04:32:50.283Z,7.5
2018-01-08T04:33:52.009Z,7.4
2018-01-08T04:34:53.705Z,7.3
2018-01-08T04:35:55.418Z,7.4
2018-01-08T04:36:57.134Z,7.4
2018-01-08T04:37:58.802Z,7.3
2018-01-08T04:39:00.536Z,7.3
2018-01-08T04:40:02.243Z,7.4
2018-01-08T04:41:03.949Z,7.3
2018-01-08T04:42:05.686Z,7.3
2018-01-08T04:43:07.491Z,7.3
2018-01-08T04:44:09.217Z,7.3
2018-01-08T04:45:10.935Z,7.3
2018-01-08T04:46:12.661Z,7.3
2018-01-08T04:47:14.332Z,7.3
2018-01-08T04:48:16.051Z,7.3
2018-01-08T04:49:17.765Z,7.3
2018-01-08T04:50:19.503Z,7.3
2018-01-08T04:51:21.217Z,7.2
2018-01-08T04:52:22.941Z,7.2
2018-01-08T04:53:24.692Z,7.2
2018-01-08T04:54:26.408Z,7.2
2018-01-08T04:55:28.145Z,7.2
2018-01-08T04:56:29.865Z,7.1
2018-01-08T04:57:31.588Z,7.2
2018-01-08T04:58:33.313Z,7.2
2018-01-08T04:59:35.980Z,7.1
2018-01-08T05:00:36.735Z,7.2
2018-01-08T05:01:38.451Z,7.2
2018-01-08T05:02:40.191Z,7.2
2018-01-08T05:03:41.937Z,7.2
2018-01-08T05:04:43.646Z,7.1
2018-01-08T05:05:45.391Z,7.1
2018-01-08T05:06:47.094Z,7.0
2018-01-08T05:07:48.821Z,7.0
2018-01-08T05:08:50.544Z,7.1
2018-01-08T05:09:52.275Z,7.0
2018-01-08T05:10:53.984Z,7.0
2018-01-08T05:11:55.711Z,7.1
2018-01-08T05:12:57.431Z,7.1
2018-01-08T05:13:59.142Z,7.2
2018-01-08T05:15:00.859Z,7.2
2018-01-08T05:16:02.566Z,7.2
2018-01-08T05:17:04.277Z,7.1
2018-01-08T05:18:06.004Z,7.1
2018-01-08T05:19:07.811Z,7.1
2018-01-08T05:20:09.527Z,7.1
2018-01-08T05:21:11.242Z,7.1
2018-01-08T05:22:12.953Z,7.0
2018-01-08T05:23:14.695Z,6.9
2018-01-08T05:24:16.404Z,7.0
2018-01-08T05:25:18.124Z,6.9
2018-01-08T05:26:19.911Z,7.0
2018-01-08T05:27:21.571Z,6.9
2018-01-08T05:28:23.310Z,6.8
2018-01-08T05:29:25.030Z,6.8
2018-01-08T05:30:26.745Z,6.9
2018-01-08T05:31:28.448Z,6.9
2018-01-08T05:32:30.160Z,6.7
2018-01-08T05:33:31.880Z,6.7
2018-01-08T05:34:33.592Z,6.8
2018-01-08T05:35:35.308Z,6.7
2018-01-08T05:36:37.017Z,6.7
2018-01-08T05:37:38.737Z,6.9
2018-01-08T05:38:40.481Z,6.8
2018-01-08T05:39:42.198Z,6.7
2018-01-08T05:40:43.907Z,6.8
2018-01-08T05:41:45.637Z,6.7
2018-01-08T05:42:47.355Z,6.7
2018-01-08T05:43:49.075Z,6.8
2018-01-08T05:44:50.801Z,6.8
2018-01-08T05:45:52.539Z,6.7
2018-01-08T05:46:54.304Z,6.8
2018-01-08T05:47:56.026Z,6.8
2018-01-08T05:48:57.788Z,6.7
2018-01-08T05:49:59.498Z,6.9
2018-01-08T05:51:01.262Z,6.9
2018-01-08T05:52:03.738Z,6.8
2018-01-08T05:53:05.435Z,6.8
2018-01-08T05:54:07.145Z,6.9
2018-01-08T05:55:08.873Z,6.9
2018-01-08T05:56:10.626Z,6.9
2018-01-08T05:57:12.368Z,6.8
2018-01-08T05:58:14.152Z,6.8
2018-01-08T05:59:15.894Z,6.8
2018-01-08T06:00:17.653Z,6.8
2018-01-08T06:01:19.407Z,6.8
2018-01-08T06:02:21.150Z,6.7
2018-01-08T06:03:22.859Z,6.7
2018-01-08T06:04:24.549Z,6.7
2018-01-08T06:05:26.254Z,6.7
2018-01-08T06:06:27.963Z,6.6
2018-01-08T06:07:29.666Z,6.6
2018-01-08T06:08:31.400Z,6.6
2018-01-08T06:09:33.125Z,6.7
2018-01-08T06:10:34.872Z,6.8
2018-01-08T06:11:36.638Z,6.8
2018-01-08T06:12:38.385Z,6.8
2018-01-08T06:13:40.110Z,6.7
2018-01-08T06:14:41.844Z,6.8
2018-01-08T06:15:43.561Z,6.7
2018-01-08T06:16:45.281Z,6.6
2018-01-08T06:17:46.998Z,6.7
2018-01-08T06:18:48.734Z,6.6
2018-01-08T06:19:50.441Z,6.6
2018-01-08T06:20:52.167Z,6.6
2018-01-08T06:21:53.886Z,6.6
2018-01-08T06:22:55.660Z,6.7
2018-01-08T06:23:57.404Z,6.6
2018-01-08T06:24:59.140Z,6.6
2018-01-08T06:26:00.882Z,6.6
2018-01-08T06:27:02.615Z,6.7
2018-01-08T06:28:04.328Z,6.6
2018-01-08T06:29:06.053Z,6.6
2018-01-08T06:30:07.831Z,6.7
2018-01-08T06:31:09.554Z,6.7
2018-01-08T06:32:11.517Z,6.6
2018-01-08T06:33:13.220Z,6.6
2018-01-08T06:34:14.959Z,6.6
2018-01-08T06:35:16.659Z,6.6
2018-01-08T06:36:18.373Z,6.7
2018-01-08T06:37:20.162Z,6.7
2018-01-08T06:38:21.891Z,6.7
2018-01-08T06:39:23.617Z,6.7
2018-01-08T06:40:25.370Z,6.7
2018-01-08T06:41:27.094Z,6.9
2018-01-08T06:42:28.805Z,6.9
2018-01-08T06:43:30.500Z,7.0
2018-01-08T06:44:32.227Z,7.0
2018-01-08T06:45:33.938Z,7.1
2018-01-08T06:46:35.663Z,7.2
2018-01-08T06:47:37.425Z,7.3
2018-01-08T06:48:39.131Z,7.3
2018-01-08T06:49:40.918Z,7.4
2018-01-08T06:50:42.580Z,7.4
2018-01-08T06:51:44.343Z,7.4
2018-01-08T06:52:46.212Z,7.4
2018-01-08T06:53:47.911Z,7.5
2018-01-08T06:54:49.619Z,7.7
2018-01-08T06:55:51.351Z,7.8
2018-01-08T06:56:53.070Z,7.8
2018-01-08T06:57:54.789Z,7.9
2018-01-08T06:58:56.510Z,7.9
2018-01-08T06:59:58.271Z,8.0
2018-01-08T07:01:00.018Z,7.9
2018-01-08T07:02:01.756Z,8.1
2018-01-08T07:03:03.459Z,8.2
2018-01-08T07:04:05.230Z,8.2
2018-01-08T07:05:07.035Z,8.2
2018-01-08T07:06:08.841Z,8.2
2018-01-08T07:07:10.545Z,8.2
2018-01-08T07:08:12.332Z,8.2
2018-01-08T07:09:14.016Z,8.2
2018-01-08T07:10:15.750Z,8.1
2018-01-08T07:11:17.494Z,8.0
2018-01-08T07:12:19.321Z,8.0
2018-01-08T07:13:21.064Z,8.0
2018-01-08T07:14:22.790Z,7.9
2018-01-08T07:15:24.532Z,7.9
2018-01-08T07:16:26.289Z,7.8
2018-01-08T07:17:28.034Z,7.9
2018-01-08T07:18:29.763Z,7.8
2018-01-08T07:19:31.495Z,7.8
2018-01-08T07:20:33.226Z,7.8
2018-01-08T07:21:34.968Z,7.7
2018-01-08T07:22:36.701Z,7.7
2018-01-08T07:23:38.420Z,7.6
2018-01-08T07:24:40.150Z,7.5
2018-01-08T07:25:41.866Z,7.6
2018-01-08T07:26:43.608Z,7.5
2018-01-08T07:27:45.312Z,7.5
2018-01-08T07:28:47.046Z,7.5
2018-01-08T07:29:48.758Z,7.4
2018-01-08T07:30:50.498Z,7.5
2018-01-08T07:31:52.226Z,7.4
2018-01-08T07:32:53.948Z,7.3
2018-01-08T07:33:55.674Z,7.4
2018-01-08T07:34:57.398Z,7.4
2018-01-08T07:35:59.150Z,7.4
2018-01-08T07:37:00.884Z,7.4
2018-01-08T07:38:02.603Z,7.3
2018-01-08T07:39:04.319Z,7.4
2018-01-08T07:40:06.068Z,7.3
2018-01-08T07:41:07.830Z,7.2
2018-01-08T07:42:09.621Z,7.3
2018-01-08T07:43:11.336Z,7.2
2018-01-08T07:44:13.107Z,7.3
2018-01-08T07:45:14.837Z,7.3
2018-01-08T07:46:16.572Z,7.2
2018-01-08T07:47:18.307Z,7.2
2018-01-08T07:48:20.048Z,7.2
2018-01-08T07:49:21.782Z,7.2
2018-01-08T07:50:23.494Z,7.2
2018-01-08T07:51:25.262Z,7.2
2018-01-08T07:52:27.018Z,7.2
2018-01-08T07:53:28.749Z,7.2
2018-01-08T07:54:30.476Z,7.2
2018-01-08T07:55:32.186Z,7.2
2018-01-08T07:56:33.965Z,7.2
2018-01-08T07:57:35.702Z,7.2
2018-01-08T07:58:37.421Z,7.2
2018-01-08T07:59:39.166Z,7.3
2018-01-08T08:00:40.884Z,7.3
2018-01-08T08:01:42.592Z,7.2
2018-01-08T08:02:44.352Z,7.3
2018-01-08T08:03:46.093Z,7.2
2018-01-08T08:04:47.805Z,7.2
2018-01-08T08:05:49.561Z,7.3
2018-01-08T08:06:51.270Z,7.3
2018-01-08T08:07:52.987Z,7.4
2018-01-08T08:08:54.712Z,7.5
2018-01-08T08:09:56.455Z,7.5
2018-01-08T08:10:58.210Z,7.6
2018-01-08T08:11:59.944Z,7.7
2018-01-08T08:13:01.691Z,7.7
2018-01-08T08:14:03.457Z,7.6
2018-01-08T08:15:05.188Z,7.7
2018-01-08T08:16:06.919Z,7.7
2018-01-08T08:17:08.643Z,7.8
2018-01-08T08:18:10.403Z,7.8
2018-01-08T08:19:12.139Z,7.8
2018-01-08T08:20:13.872Z,7.7
2018-01-08T08:21:15.599Z,7.8
2018-01-08T08:22:17.325Z,7.8
2018-01-08T08:23:19.038Z,7.8
2018-01-08T08:24:20.780Z,7.8
2018-01-08T08:25:22.525Z,7.8
2018-01-08T08:26:24.236Z,7.8
2018-01-08T08:27:25.970Z,7.8
2018-01-08T08:28:27.686Z,7.8
2018-01-08T08:29:29.433Z,7.8
2018-01-08T08:30:31.172Z,7.8
2018-01-08T08:31:32.982Z,7.9
2018-01-08T08:32:34.710Z,7.9
2018-01-08T08:33:36.462Z,7.9
2018-01-08T08:34:38.179Z,8.0
2018-01-08T08:35:39.941Z,8.0
2018-01-08T08:36:41.657Z,8.0
2018-01-08T08:37:43.374Z,8.0
2018-01-08T08:38:45.104Z,8.0
2018-01-08T08:39:46.844Z,8.0
2018-01-08T08:40:48.581Z,8.0
2018-01-08T08:41:50.358Z,8.0
2018-01-08T08:42:52.244Z,8.0
2018-01-08T08:43:54.015Z,7.9
2018-01-08T08:44:55.814Z,8.0
2018-01-08T08:45:57.570Z,8.0
2018-01-08T08:46:59.361Z,8.2
2018-01-08T08:48:01.267Z,8.2
2018-01-08T08:49:03.053Z,8.2
2018-01-08T08:50:04.857Z,8.2
2018-01-08T08:51:06.612Z,8.2
2018-01-08T08:52:08.342Z,8.3
2018-01-08T08:53:10.137Z,8.4
2018-01-08T08:54:11.851Z,8.5
2018-01-08T08:55:13.626Z,8.5
2018-01-08T08:56:15.371Z,8.5
2018-01-08T08:57:17.093Z,8.5
2018-01-08T08:58:18.916Z,8.6
2018-01-08T08:59:20.575Z,8.6
2018-01-08T09:00:22.351Z,8.6
2018-01-08T09:01:24.164Z,8.6
2018-01-08T09:02:25.887Z,8.6
2018-01-08T09:03:27.630Z,8.8
2018-01-08T09:04:29.382Z,8.8
2018-01-08T09:05:31.371Z,8.7
2018-01-08T09:06:33.084Z,8.9
2018-01-08T09:07:34.842Z,8.9
2018-01-08T09:08:36.616Z,9.1
2018-01-08T09:09:38.348Z,9.1
2018-01-08T09:10:40.107Z,9.2
2018-01-08T09:11:41.847Z,9.3
2018-01-08T09:12:43.569Z,9.3
2018-01-08T09:13:45.339Z,9.4
2018-01-08T09:14:47.151Z,9.4
2018-01-08T09:15:48.973Z,9.4
2018-01-08T09:16:51.057Z,9.4
2018-01-08T09:17:52.795Z,9.4
2018-01-08T09:18:54.524Z,9.4
2018-01-08T09:19:56.346Z,9.4
2018-01-08T09:20:58.112Z,9.4
2018-01-08T09:21:59.839Z,9.4
2018-01-08T09:23:01.587Z,9.4
2018-01-08T09:24:03.317Z,9.4
2018-01-08T09:25:05.080Z,9.4
2018-01-08T09:26:06.828Z,9.4
2018-01-08T09:27:08.612Z,9.4
2018-01-08T09:28:10.410Z,9.5
2018-01-08T09:29:12.148Z,9.4
2018-01-08T09:30:13.884Z,9.4
2018-01-08T09:31:15.607Z,9.5
2018-01-08T09:32:17.357Z,9.5
2018-01-08T09:33:19.104Z,9.6
2018-01-08T09:34:20.850Z,9.6
2018-01-08T09:35:22.623Z,9.6
2018-01-08T09:36:24.365Z,9.7
2018-01-08T09:37:26.096Z,9.7
2018-01-08T09:38:27.841Z,9.8
2018-01-08T09:39:29.588Z,9.8
2018-01-08T09:40:32.285Z,9.8
2018-01-08T09:41:34.046Z,9.8
2018-01-08T09:42:35.837Z,9.8
2018-01-08T09:43:37.607Z,9.8
2018-01-08T09:44:39.360Z,10.0
2018-01-08T09:45:41.113Z,9.9
2018-01-08T09:46:42.877Z,9.9
2018-01-08T09:47:44.600Z,10.0
2018-01-08T09:48:46.360Z,10.0
2018-01-08T09:49:48.136Z,10.1
2018-01-08T09:50:49.866Z,9.9
2018-01-08T09:51:51.602Z,10.0
2018-01-08T09:52:53.339Z,10.1
2018-01-08T09:53:55.082Z,10.1
2018-01-08T09:54:56.827Z,10.4
2018-01-08T09:55:58.564Z,10.8
2018-01-08T09:57:00.300Z,11.4
2018-01-08T09:58:02.042Z,12.2
2018-01-08T09:59:03.764Z,13.5
2018-01-08T10:00:05.477Z,13.9
2018-01-08T10:01:07.218Z,14.0
2018-01-08T10:02:08.976Z,14.3
2018-01-08T10:03:10.762Z,14.0
2018-01-08T10:04:12.539Z,14.2
2018-01-08T10:05:14.286Z,14.5
2018-01-08T10:06:16.009Z,14.7
2018-01-08T10:07:17.750Z,15.6
2018-01-08T10:08:19.585Z,15.3
2018-01-08T10:09:21.650Z,16.2
2018-01-08T10:10:23.384Z,16.6
2018-01-08T10:11:25.134Z,16.1
2018-01-08T10:12:26.892Z,16.7
2018-01-08T10:13:28.626Z,16.8
2018-01-08T10:14:30.379Z,17.6
2018-01-08T10:15:32.106Z,17.7
2018-01-08T10:16:33.862Z,17.7
2018-01-08T10:17:35.616Z,18.3
2018-01-08T10:18:37.380Z,18.4
2018-01-08T10:19:39.125Z,17.9
2018-01-08T10:20:40.871Z,16.8
2018-01-08T10:21:42.619Z,16.6
2018-01-08T10:22:44.390Z,16.5
2018-01-08T10:23:46.138Z,17.1
2018-01-08T10:24:47.945Z,17.6
2018-01-08T10:25:49.693Z,18.1
2018-01-08T10:26:51.457Z,17.9
2018-01-08T10:27:53.203Z,17.2
2018-01-08T10:28:54.918Z,17.1
2018-01-08T10:29:56.665Z,16.6
2018-01-08T10:30:58.397Z,16.6
2018-01-08T10:32:00.161Z,16.5
2018-01-08T10:33:01.931Z,16.6
2018-01-08T10:34:03.682Z,16.8
2018-01-08T10:35:05.417Z,16.8
2018-01-08T10:36:07.193Z,17.6
2018-01-08T10:37:08.927Z,18.6
2018-01-08T10:38:10.710Z,19.2
2018-01-08T10:39:12.485Z,19.0
2018-01-08T10:40:14.243Z,18.9
2018-01-08T10:41:15.975Z,19.8
2018-01-08T10:42:17.756Z,19.7
2018-01-08T10:43:19.502Z,20.0
2018-01-08T10:44:21.260Z,20.6
2018-01-08T10:45:23.018Z,20.3
2018-01-08T10:46:24.758Z,20.3
2018-01-08T10:47:26.489Z,20.8
2018-01-08T10:48:28.226Z,20.8
2018-01-08T10:49:29.978Z,20.1
2018-01-08T10:50:31.719Z,19.2
2018-01-08T10:51:33.999Z,20.5
2018-01-08T10:52:35.770Z,20.9
2018-01-08T10:53:37.519Z,20.1
2018-01-08T10:54:39.269Z,20.9
2018-01-08T10:55:41.377Z,20.5
2018-01-08T10:56:43.139Z,21.6
2018-01-08T10:57:44.962Z,22.6
2018-01-08T10:58:46.788Z,22.6
2018-01-08T10:59:48.743Z,21.4
2018-01-08T11:00:50.838Z,21.1
2018-01-08T11:01:52.904Z,18.3
2018-01-08T11:02:54.983Z,17.5
2018-01-08T11:03:57.047Z,18.8
2018-01-08T11:04:59.243Z,20.4
2018-01-08T11:06:01.315Z,21.2
2018-01-08T11:07:03.420Z,21.7
2018-01-08T11:08:05.165Z,22.2
2018-01-08T11:09:06.905Z,21.7
2018-01-08T11:10:08.674Z,22.1
2018-01-08T11:11:10.411Z,21.1
2018-01-08T11:12:12.164Z,21.1
2018-01-08T11:13:13.906Z,21.6
2018-01-08T11:14:15.688Z,21.2
2018-01-08T11:15:17.452Z,20.3
2018-01-08T11:16:20.683Z,20.3
2018-01-08T11:17:22.410Z,21.4
2018-01-08T11:18:24.190Z,20.3
2018-01-08T11:19:25.933Z,19.5
2018-01-08T11:20:27.658Z,19.4
2018-01-08T11:21:29.411Z,20.6
2018-01-08T11:22:31.168Z,20.7
2018-01-08T11:23:32.892Z,20.9
2018-01-08T11:24:34.664Z,21.5
2018-01-08T11:25:36.412Z,21.3
2018-01-08T11:26:38.162Z,20.7
2018-01-08T11:27:39.901Z,20.7
2018-01-08T11:28:41.648Z,19.9
2018-01-08T11:29:43.388Z,20.2
2018-01-08T11:30:45.162Z,21.3
2018-01-08T11:31:46.912Z,21.7
2018-01-08T11:32:48.681Z,22.2
2018-01-08T11:33:50.384Z,23.0
2018-01-08T11:34:52.113Z,22.3
2018-01-08T11:35:53.898Z,22.0
2018-01-08T11:36:55.664Z,21.8
2018-01-08T11:37:57.396Z,22.4
2018-01-08T11:38:59.132Z,21.7
2018-01-08T11:40:00.916Z,21.5
2018-01-08T11:41:02.678Z,21.0
2018-01-08T11:42:04.390Z,21.2
2018-01-08T11:43:06.134Z,22.0
2018-01-08T11:44:07.863Z,21.7
2018-01-08T11:45:09.613Z,22.1
2018-01-08T11:46:11.343Z,22.0
2018-01-08T11:47:13.090Z,22.7
2018-01-08T11:48:14.849Z,22.0
2018-01-08T11:49:16.604Z,21.5
2018-01-08T11:50:18.369Z,19.2
2018-01-08T11:51:20.122Z,19.6
2018-01-08T11:52:21.834Z,20.8
2018-01-08T11:53:23.606Z,21.0
2018-01-08T11:54:25.364Z,21.7
2018-01-08T11:55:27.102Z,22.1
2018-01-08T11:56:28.861Z,22.1
2018-01-08T11:57:30.611Z,22.9
2018-01-08T11:58:32.346Z,22.8
2018-01-08T11:59:34.106Z,22.5
2018-01-08T12:00:35.840Z,22.4
2018-01-08T12:01:37.570Z,22.5
2018-01-08T12:02:39.312Z,22.7
2018-01-08T12:03:41.043Z,22.2
2018-01-08T12:04:42.791Z,22.2
2018-01-08T12:05:44.537Z,21.8
2018-01-08T12:06:46.298Z,22.0
2018-01-08T12:07:48.035Z,22.2
2018-01-08T12:08:49.783Z,22.3
2018-01-08T12:09:51.534Z,20.9
2018-01-08T12:10:53.310Z,19.6
2018-01-08T12:11:55.036Z,20.6
2018-01-08T12:12:56.805Z,21.6
2018-01-08T12:13:58.539Z,21.2
2018-01-08T12:15:00.302Z,21.0
2018-01-08T12:16:02.046Z,20.8
2018-01-08T12:17:03.781Z,21.6
2018-01-08T12:18:05.536Z,22.1
2018-01-08T12:19:07.295Z,22.1
2018-01-08T12:20:09.040Z,22.7
2018-01-08T12:21:10.801Z,21.5
2018-01-08T12:22:12.544Z,20.3
2018-01-08T12:23:14.302Z,18.5
2018-01-08T12:24:16.045Z,19.4
2018-01-08T12:25:17.797Z,18.8
2018-01-08T12:26:19.591Z,18.2
2018-01-08T12:27:21.330Z,18.4
2018-01-08T12:28:23.072Z,18.8
2018-01-08T12:29:24.846Z,17.4
2018-01-08T12:30:26.577Z,17.9
2018-01-08T12:31:28.319Z,15.6
2018-01-08T12:32:30.076Z,15.7
2018-01-08T12:33:31.986Z,16.2
2018-01-08T12:34:33.780Z,15.7
2018-01-08T12:35:35.570Z,14.7
2018-01-08T12:36:37.345Z,14.8
2018-01-08T12:37:39.066Z,15.9
2018-01-08T12:38:40.828Z,17.2
2018-01-08T12:39:42.600Z,17.0
2018-01-08T12:40:44.339Z,17.6
2018-01-08T12:41:46.090Z,16.1
2018-01-08T12:42:47.840Z,15.4
2018-01-08T12:43:49.573Z,15.7
2018-01-08T12:44:51.337Z,15.7
2018-01-08T12:45:53.143Z,16.2
2018-01-08T12:46:54.903Z,16.1
2018-01-08T12:47:56.724Z,16.2
2018-01-08T12:48:58.465Z,16.0
2018-01-08T12:50:00.242Z,16.2
2018-01-08T12:51:02.001Z,15.7
2018-01-08T12:52:03.767Z,15.7
2018-01-08T12:53:05.501Z,15.8
2018-01-08T12:54:07.247Z,15.0
2018-01-08T12:55:09.023Z,15.1
2018-01-08T12:56:10.780Z,14.4
2018-01-08T12:57:12.507Z,14.4
2018-01-08T12:58:14.247Z,14.7
2018-01-08T12:59:15.993Z,15.0
2018-01-08T13:00:17.767Z,14.5
2018-01-08T13:01:19.509Z,14.2
2018-01-08T13:02:21.244Z,14.1
2018-01-08T13:03:22.993Z,14.0
2018-01-08T13:04:24.696Z,13.9
2018-01-08T13:05:26.449Z,14.3
2018-01-08T13:06:28.205Z,14.6
2018-01-08T13:07:29.982Z,14.6
2018-01-08T13:08:31.719Z,14.8
2018-01-08T13:09:33.512Z,14.5
2018-01-08T13:10:35.261Z,14.2
2018-01-08T13:11:37.008Z,14.3
2018-01-08T13:12:38.727Z,14.3
2018-01-08T13:13:40.470Z,14.4
2018-01-08T13:14:42.210Z,14.7
2018-01-08T13:15:43.985Z,14.8
2018-01-08T13:16:45.733Z,14.7
2018-01-08T13:17:47.468Z,14.2
2018-01-08T13:18:49.232Z,14.9
2018-01-08T13:19:50.963Z,14.8
2018-01-08T13:20:52.712Z,14.9
2018-01-08T13:21:54.459Z,14.5
2018-01-08T13:22:56.190Z,14.5
2018-01-08T13:23:57.989Z,13.8
2018-01-08T13:24:59.717Z,14.0
2018-01-08T13:26:01.459Z,14.0
2018-01-08T13:27:03.216Z,13.9
2018-01-08T13:28:04.945Z,14.2
2018-01-08T13:29:06.694Z,14.4
2018-01-08T13:30:08.446Z,14.5
2018-01-08T13:31:10.255Z,14.2
2018-01-08T13:32:12.024Z,14.7
2018-01-08T13:33:13.787Z,14.5
2018-01-08T13:34:15.519Z,14.1
2018-01-08T13:35:17.244Z,14.1
2018-01-08T13:36:19.029Z,14.3
2018-01-08T13:37:20.771Z,14.0
2018-01-08T13:38:22.527Z,14.1
2018-01-08T13:39:24.341Z,14.2
2018-01-08T13:40:26.083Z,14.2
2018-01-08T13:41:27.831Z,14.6
2018-01-08T13:42:29.613Z,15.0
2018-01-08T13:43:31.353Z,14.9
2018-01-08T13:44:33.076Z,15.2
2018-01-08T13:45:34.845Z,15.7
2018-01-08T13:46:36.587Z,15.0
2018-01-08T13:47:38.355Z,15.1
2018-01-08T13:48:40.086Z,14.5
2018-01-08T13:49:41.846Z,14.2
2018-01-08T13:50:43.620Z,14.3
2018-01-08T13:51:45.388Z,14.8
2018-01-08T13:52:47.124Z,14.5
2018-01-08T13:53:48.953Z,15.1
2018-01-08T13:54:50.707Z,15.0
2018-01-08T13:55:52.451Z,15.7
2018-01-08T13:56:54.202Z,15.5
2018-01-08T13:57:55.942Z,16.4
2018-01-08T13:58:57.693Z,16.5
2018-01-08T13:59:59.477Z,16.8